createdAt,value
2018-03-01T00:02:04.840Z,17.50
2018-03-01T00:04:32.973Z,15.82
2018-03-01T00:07:01.126Z,16.12
2018-03-01T00:09:29.277Z,16.25
2018-03-01T00:11:57.457Z,17.70
2018-03-01T00:14:25.592Z,18.42
2018-03-01T00:16:53.732Z,17.12
2018-03-01T00:19:21.874Z,17.20
2018-03-01T00:21:50.774Z,16.80
2018-03-01T00:24:18.973Z,16.35
2018-03-01T00:26:47.117Z,17.42
2018-03-01T00:29:15.232Z,17.23
2018-03-01T00:31:43.444Z,16.77
2018-03-01T00:34:12.346Z,17.98
2018-03-01T00:36:40.719Z,17.45
2018-03-01T00:39:09.606Z,16.55
2018-03-01T00:41:38.515Z,16.00
2018-03-01T00:44:06.648Z,17.12
2018-03-01T00:46:34.788Z,15.50
2018-03-01T00:49:03.129Z,17.85
2018-03-01T00:51:31.269Z,18.27
2018-03-01T00:53:59.578Z,15.90
2018-03-01T00:56:27.736Z,17.52
2018-03-01T00:58:56.625Z,17.33
2018-03-01T01:01:25.537Z,16.80
2018-03-01T01:03:53.668Z,17.00
2018-03-01T01:06:21.808Z,18.17
2018-03-01T01:08:49.947Z,15.63
2018-03-01T01:11:18.077Z,17.83
2018-03-01T01:13:46.222Z,17.87
2018-03-01T01:16:14.359Z,17.60
2018-03-01T01:18:42.518Z,15.52
2018-03-01T01:21:11.405Z,19.83
2018-03-01T01:23:40.313Z,15.95
2018-03-01T01:26:08.456Z,17.50
2018-03-01T01:28:37.360Z,18.10
2018-03-01T01:31:06.492Z,19.10
2018-03-01T01:33:34.620Z,19.15
2018-03-01T01:36:03.516Z,16.80
2018-03-01T01:38:31.666Z,17.42
2018-03-01T01:40:59.823Z,17.23
2018-03-01T01:43:27.972Z,17.80
2018-03-01T01:45:56.094Z,17.25
2018-03-01T01:48:25.016Z,16.65
2018-03-01T01:51:03.818Z,17.20
2018-03-01T01:53:31.949Z,17.45
2018-03-01T01:56:00.070Z,17.27
2018-03-01T01:58:28.220Z,19.30
2018-03-01T02:00:57.106Z,17.00
2018-03-01T02:03:26.022Z,17.40
2018-03-01T02:05:54.141Z,17.30
2018-03-01T02:08:22.282Z,17.25
2018-03-01T02:10:50.417Z,19.70
2018-03-01T02:13:19.312Z,19.15
2018-03-01T02:15:47.452Z,16.58
2018-03-01T02:18:15.582Z,19.50
2018-03-01T02:20:43.737Z,18.17
2018-03-01T02:23:11.897Z,17.80
2018-03-01T02:25:40.050Z,17.23
2018-03-01T02:28:08.177Z,18.95
2018-03-01T02:30:36.330Z,19.02
2018-03-01T02:33:04.462Z,19.83
2018-03-01T02:35:33.366Z,18.67
2018-03-01T02:38:02.266Z,18.80
2018-03-01T02:40:30.409Z,18.67
2018-03-01T02:42:58.537Z,18.67
2018-03-01T02:45:26.664Z,17.33
2018-03-01T02:47:55.561Z,16.77
2018-03-01T02:50:23.705Z,18.05
2018-03-01T02:52:51.838Z,17.35
2018-03-01T02:55:20.022Z,18.73
2018-03-01T02:57:48.142Z,17.58
2018-03-01T03:00:17.101Z,17.90
2018-03-01T03:02:45.240Z,18.65
2018-03-01T03:05:13.360Z,17.55
2018-03-01T03:07:41.496Z,17.50
2018-03-01T03:10:09.622Z,17.85
2018-03-01T03:12:38.525Z,17.85
2018-03-01T03:15:06.657Z,14.85
2018-03-01T03:17:34.796Z,17.98
2018-03-01T03:20:03.006Z,18.12
2018-03-01T03:22:31.133Z,17.48
2018-03-01T03:24:59.290Z,18.52
2018-03-01T03:27:27.429Z,17.95
2018-03-01T03:29:56.332Z,16.92
2018-03-01T03:32:25.221Z,17.98
2018-03-01T03:34:53.346Z,16.52
2018-03-01T03:37:21.465Z,16.27
2018-03-01T03:39:49.666Z,16.80
2018-03-01T03:42:17.789Z,17.52
2018-03-01T03:44:46.688Z,16.98
2018-03-01T03:47:15.575Z,16.73
2018-03-01T03:49:44.498Z,16.85
2018-03-01T03:52:12.621Z,17.00
2018-03-01T03:54:40.758Z,15.70
2018-03-01T03:57:08.889Z,17.80
2018-03-01T03:59:37.793Z,15.98
2018-03-01T04:02:05.920Z,17.27
2018-03-01T04:04:34.061Z,17.02
2018-03-01T04:07:02.191Z,17.37
2018-03-01T04:09:31.113Z,17.33
2018-03-01T04:11:59.229Z,17.67
2018-03-01T04:14:27.357Z,17.70
2018-03-01T04:16:55.493Z,18.17
2018-03-01T04:19:24.393Z,16.42
2018-03-01T04:21:52.529Z,16.40
2018-03-01T04:24:20.658Z,16.87
2018-03-01T04:26:48.798Z,15.93
2018-03-01T04:29:17.714Z,16.85
2018-03-01T04:31:45.842Z,17.30
2018-03-01T04:34:13.981Z,18.60
2018-03-01T04:36:42.126Z,17.52
2018-03-01T04:39:10.254Z,17.10
2018-03-01T04:41:39.145Z,15.82
2018-03-01T04:44:08.049Z,15.55
2018-03-01T04:46:36.948Z,15.95
2018-03-01T04:49:05.855Z,17.58
2018-03-01T04:51:34.085Z,16.55
2018-03-01T04:54:03.341Z,16.92
2018-03-01T04:56:31.464Z,18.42
2018-03-01T04:59:00.374Z,17.40
2018-03-01T05:01:28.501Z,17.75
2018-03-01T05:03:56.637Z,16.98
2018-03-01T05:06:24.801Z,17.58
2018-03-01T05:08:52.948Z,17.12
2018-03-01T05:11:21.124Z,16.27
2018-03-01T05:13:50.027Z,17.62
2018-03-01T05:16:18.179Z,16.75
2018-03-01T05:18:47.105Z,16.45
2018-03-01T05:21:15.344Z,16.92
2018-03-01T05:23:44.241Z,16.55
2018-03-01T05:26:12.380Z,16.98
2018-03-01T05:28:40.590Z,18.30
2018-03-01T05:31:08.867Z,16.40
2018-03-01T05:33:37.012Z,17.77
2018-03-01T05:36:05.921Z,16.90
2018-03-01T05:38:34.049Z,17.52
2018-03-01T05:41:02.190Z,17.83
2018-03-01T05:43:30.323Z,16.75
2018-03-01T05:45:59.223Z,17.05
2018-03-01T05:48:28.109Z,16.17
2018-03-01T05:50:57.009Z,18.85
2018-03-01T05:53:25.149Z,20.10
2018-03-01T05:55:53.280Z,16.55
2018-03-01T05:58:21.521Z,17.48
2018-03-01T06:00:49.669Z,17.15
2018-03-01T06:03:17.809Z,16.27
2018-03-01T06:05:45.941Z,16.50
2018-03-01T06:08:14.066Z,17.73
2018-03-01T06:10:42.221Z,17.40
2018-03-01T06:13:10.381Z,17.87
2018-03-01T06:15:38.493Z,17.77
2018-03-01T06:18:07.398Z,18.58
2018-03-01T06:20:35.523Z,18.50
2018-03-01T06:23:03.663Z,17.85
2018-03-01T06:25:31.810Z,15.07
2018-03-01T06:27:59.967Z,17.25
2018-03-01T06:30:28.069Z,18.12
2018-03-01T06:32:56.197Z,16.80
2018-03-01T06:35:24.346Z,16.70
2018-03-01T06:37:52.484Z,16.65
2018-03-01T06:40:20.611Z,17.00
2018-03-01T06:42:48.766Z,17.35
2018-03-01T06:45:16.889Z,16.35
2018-03-01T06:47:45.026Z,16.60
2018-03-01T06:50:13.157Z,17.98
2018-03-01T06:52:41.304Z,17.23
2018-03-01T06:55:09.453Z,17.95
2018-03-01T06:57:38.349Z,18.55
2018-03-01T07:00:07.239Z,18.00
2018-03-01T07:02:36.165Z,16.27
2018-03-01T07:05:04.290Z,18.90
2018-03-01T07:07:33.193Z,17.33
2018-03-01T07:10:01.455Z,18.85
2018-03-01T07:12:30.361Z,16.75
2018-03-01T07:14:58.496Z,17.73
2018-03-01T07:17:26.609Z,16.02
2018-03-01T07:19:54.837Z,17.23
2018-03-01T07:22:22.963Z,18.40
2018-03-01T07:24:51.122Z,17.75
2018-03-01T07:27:19.249Z,19.40
2018-03-01T07:29:47.465Z,16.60
2018-03-01T07:32:15.590Z,17.77
2018-03-01T07:34:43.726Z,15.73
2018-03-01T07:37:11.876Z,18.00
2018-03-01T07:39:40.041Z,17.30
2018-03-01T07:42:08.186Z,19.25
2018-03-01T07:44:36.326Z,18.60
2018-03-01T07:47:04.463Z,18.00
2018-03-01T07:49:32.633Z,19.05
2018-03-01T07:52:00.913Z,19.58
2018-03-01T07:54:29.053Z,19.12
2018-03-01T07:56:57.198Z,16.33
2018-03-01T07:59:25.351Z,18.02
2018-03-01T08:01:53.561Z,17.60
2018-03-01T08:04:21.773Z,18.30
2018-03-01T08:06:49.897Z,18.12
2018-03-01T08:09:18.021Z,17.35
2018-03-01T08:11:47.113Z,19.98
2018-03-01T08:14:15.260Z,17.92
2018-03-01T08:16:44.206Z,17.35
2018-03-01T08:19:12.671Z,18.42
2018-03-01T08:21:40.859Z,18.95
2018-03-01T08:24:08.992Z,17.92
2018-03-01T08:26:37.145Z,20.02
2018-03-01T08:29:06.038Z,18.60
2018-03-01T08:31:34.433Z,17.92
2018-03-01T08:34:02.581Z,18.83
2018-03-01T08:36:31.497Z,20.10
2018-03-01T08:38:59.618Z,20.00
2018-03-01T08:41:27.836Z,19.25
2018-03-01T08:43:56.048Z,19.73
2018-03-01T08:46:24.887Z,19.23
2018-03-01T08:48:53.773Z,17.10
2018-03-01T08:51:22.017Z,18.33
2018-03-01T08:53:50.298Z,18.87
2018-03-01T08:56:19.187Z,19.83
2018-03-01T08:58:48.109Z,19.65
2018-03-01T09:01:16.305Z,19.48
2018-03-01T09:03:44.441Z,19.02
2018-03-01T09:06:12.569Z,18.70
2018-03-01T09:08:40.901Z,18.25
2018-03-01T09:11:09.009Z,22.15
2018-03-01T09:13:37.145Z,18.48
2018-03-01T09:16:05.299Z,18.33
2018-03-01T09:18:33.431Z,18.87
2018-03-01T09:21:01.622Z,20.15
2018-03-01T09:23:29.938Z,19.48
2018-03-01T09:25:58.066Z,19.48
2018-03-01T09:28:26.182Z,20.00
2018-03-01T09:30:54.322Z,20.27
2018-03-01T09:33:23.205Z,21.15
2018-03-01T09:35:51.354Z,20.12
2018-03-01T09:38:19.509Z,20.58
2018-03-01T09:40:47.734Z,21.30
2018-03-01T09:43:16.637Z,22.95
2018-03-01T09:45:45.526Z,20.75
2018-03-01T09:48:13.642Z,19.73
2018-03-01T09:50:42.446Z,20.45
2018-03-01T09:53:10.722Z,19.35
2018-03-01T09:55:39.571Z,19.83
2018-03-01T09:58:07.686Z,18.60
2018-03-01T10:00:36.633Z,22.15
2018-03-01T10:03:05.019Z,21.48
2018-03-01T10:05:34.798Z,20.80
2018-03-01T10:08:02.902Z,21.02
2018-03-01T10:10:31.055Z,20.58
2018-03-01T10:12:59.506Z,19.87
2018-03-01T10:15:28.421Z,19.77
2018-03-01T10:17:56.551Z,19.48
2018-03-01T10:20:25.447Z,20.48
2018-03-01T10:22:54.344Z,21.20
2018-03-01T10:25:23.234Z,19.83
2018-03-01T10:27:52.146Z,19.70
2018-03-01T10:30:20.263Z,19.23
2018-03-01T10:32:48.401Z,19.37
2018-03-01T10:35:16.536Z,20.80
2018-03-01T10:37:45.445Z,19.87
2018-03-01T10:40:13.590Z,21.40
2018-03-01T10:42:42.490Z,18.92
2018-03-01T10:45:11.401Z,17.90
2018-03-01T10:47:39.546Z,19.42
2018-03-01T10:50:08.425Z,19.25
2018-03-01T10:52:37.349Z,19.95
2018-03-01T10:55:05.473Z,19.73
2018-03-01T10:57:33.615Z,19.95
2018-03-01T11:00:01.735Z,18.55
2018-03-01T11:02:29.932Z,19.08
2018-03-01T11:04:58.092Z,19.65
2018-03-01T11:07:34.419Z,21.85
2018-03-01T11:10:06.264Z,19.75
2018-03-01T11:12:34.633Z,22.65
2018-03-01T11:15:02.917Z,20.48
2018-03-01T11:17:31.048Z,20.55
2018-03-01T11:19:59.171Z,21.83
2018-03-01T11:22:27.292Z,19.75
2018-03-01T11:24:58.873Z,20.20
2018-03-01T11:27:32.314Z,20.35
2018-03-01T11:30:00.504Z,19.48
2018-03-01T11:32:28.657Z,21.85
2018-03-01T11:34:57.561Z,21.20
2018-03-01T11:37:25.699Z,21.60
2018-03-01T11:39:54.591Z,18.90
2018-03-01T11:42:23.502Z,21.10
2018-03-01T11:44:52.415Z,21.80
2018-03-01T11:47:20.542Z,23.55
2018-03-01T11:49:48.673Z,21.50
2018-03-01T11:52:16.831Z,19.98
2018-03-01T11:54:44.954Z,21.45
2018-03-01T11:57:13.114Z,20.00
2018-03-01T11:59:41.257Z,20.10
2018-03-01T12:02:10.155Z,20.42
2018-03-01T12:04:38.389Z,19.02
2018-03-01T12:07:07.372Z,19.02
2018-03-01T12:09:35.550Z,18.15
2018-03-01T12:12:03.773Z,19.70
2018-03-01T12:14:31.904Z,21.62
2018-03-01T12:17:00.042Z,18.67
2018-03-01T12:19:28.162Z,19.98
2018-03-01T12:21:56.316Z,19.75
2018-03-01T12:24:24.433Z,19.10
2018-03-01T12:26:52.573Z,18.95
2018-03-01T12:29:20.716Z,20.27
2018-03-01T12:31:49.631Z,20.83
2018-03-01T12:34:17.754Z,19.67
2018-03-01T12:36:45.904Z,20.15
2018-03-01T12:39:14.035Z,20.00
2018-03-01T12:41:42.746Z,20.10
2018-03-01T12:44:10.872Z,18.80
2018-03-01T12:46:39.013Z,20.23
2018-03-01T12:49:08.649Z,21.17
2018-03-01T12:51:36.793Z,19.70
2018-03-01T12:54:04.944Z,20.60
2018-03-01T12:56:33.066Z,21.17
2018-03-01T12:59:01.198Z,21.20
2018-03-01T13:01:29.390Z,19.83
2018-03-01T13:03:58.297Z,19.98
2018-03-01T13:06:26.430Z,20.17
2018-03-01T13:08:54.558Z,19.45
2018-03-01T13:11:22.691Z,21.55
2018-03-01T13:13:50.822Z,20.15
2018-03-01T13:16:18.952Z,19.30
2018-03-01T13:18:47.858Z,22.20
2018-03-01T13:21:15.983Z,19.85
2018-03-01T13:23:44.159Z,21.35
2018-03-01T13:26:12.297Z,19.67
2018-03-01T13:28:40.420Z,18.45
2018-03-01T13:31:26.050Z,18.95
2018-03-01T13:34:11.997Z,18.33
2018-03-01T13:36:41.347Z,19.90
2018-03-01T13:39:09.506Z,20.70
2018-03-01T13:41:37.627Z,18.80
2018-03-01T13:44:06.521Z,19.08
2018-03-01T13:46:35.424Z,20.90
2018-03-01T13:49:03.558Z,19.60
2018-03-01T13:51:31.694Z,19.33
2018-03-01T13:53:59.836Z,19.87
2018-03-01T13:56:29.425Z,19.40
2018-03-01T13:58:58.322Z,19.05
2018-03-01T14:01:27.217Z,19.85
2018-03-01T14:03:55.341Z,19.23
2018-03-01T14:09:31.493Z,18.35
2018-03-01T14:11:59.630Z,21.27
2018-03-01T14:14:33.505Z,21.12
2018-03-01T14:17:17.648Z,21.35
2018-03-01T14:33:12.266Z,20.23
2018-03-01T14:35:40.397Z,21.27
2018-03-01T14:38:08.524Z,21.65
2018-03-01T14:40:36.653Z,21.23
2018-03-01T14:43:05.559Z,20.05
2018-03-01T14:45:34.445Z,20.92
2018-03-01T14:48:02.586Z,20.37
2018-03-01T14:50:30.725Z,21.20
2018-03-01T14:52:58.860Z,21.27
2018-03-01T14:55:27.752Z,21.45
2018-03-01T14:57:56.672Z,21.77
2018-03-01T15:00:25.218Z,22.08
2018-03-01T15:02:53.452Z,21.10
2018-03-01T15:05:21.581Z,21.40
2018-03-01T15:07:49.849Z,21.62
2018-03-01T15:10:17.982Z,22.17
2018-03-01T15:12:46.125Z,23.20
2018-03-01T15:15:14.257Z,22.00
2018-03-01T15:17:42.445Z,22.52
2018-03-01T15:20:10.606Z,23.77
2018-03-01T15:22:38.742Z,24.50
2018-03-01T15:25:06.869Z,22.87
2018-03-01T15:27:35.020Z,23.00
2018-03-01T15:30:04.055Z,21.80
2018-03-01T15:32:32.198Z,20.70
2018-03-01T15:35:00.929Z,23.38
2018-03-01T15:37:30.600Z,21.12
2018-03-01T15:39:58.743Z,21.77
2018-03-01T15:42:27.641Z,21.85
2018-03-01T15:44:55.979Z,22.25
2018-03-01T15:47:24.049Z,21.83
2018-03-01T15:49:52.198Z,21.45
2018-03-01T15:52:20.433Z,21.27
2018-03-01T15:54:48.569Z,22.92
2018-03-01T15:57:16.783Z,22.50
2018-03-01T15:59:44.921Z,22.55
2018-03-01T16:02:13.836Z,24.77
2018-03-01T16:04:42.011Z,21.98
2018-03-01T16:07:10.185Z,24.02
2018-03-01T16:09:38.332Z,21.55
2018-03-01T16:12:07.226Z,21.08
2018-03-01T16:14:36.277Z,21.85
2018-03-01T16:17:04.592Z,22.87
2018-03-01T16:19:33.805Z,24.83
2018-03-01T16:22:02.874Z,22.83
2018-03-01T16:24:31.821Z,43.22
2018-03-01T16:26:59.950Z,24.12
2018-03-01T16:29:28.907Z,23.58
2018-03-01T16:31:57.051Z,28.20
2018-03-01T16:34:25.198Z,33.03
2018-03-01T16:36:53.341Z,25.77
2018-03-01T16:39:22.238Z,48.05
2018-03-01T16:41:51.149Z,26.17
2018-03-01T16:44:19.274Z,27.25
2018-03-01T16:46:47.410Z,23.80
2018-03-01T16:49:15.537Z,25.30
2018-03-01T16:51:44.444Z,25.42
2018-03-01T16:54:12.575Z,25.45
2018-03-01T16:56:40.711Z,25.42
2018-03-01T16:59:08.837Z,25.75
2018-03-01T17:01:37.876Z,24.23
2018-03-01T17:04:06.043Z,25.33
2018-03-01T17:06:34.170Z,27.75
2018-03-01T17:09:03.122Z,26.80
2018-03-01T17:11:31.230Z,25.12
2018-03-01T17:13:59.370Z,25.50
2018-03-01T17:16:27.500Z,25.45
2018-03-01T17:18:55.705Z,25.02
2018-03-01T17:21:23.837Z,26.85
2018-03-01T17:23:52.053Z,21.92
2018-03-01T17:26:20.183Z,22.42
2018-03-01T17:28:48.322Z,24.95
2018-03-01T17:31:17.230Z,22.65
2018-03-01T17:33:45.382Z,23.75
2018-03-01T17:36:13.513Z,24.85
2018-03-01T17:38:41.650Z,24.55
2018-03-01T17:41:09.795Z,24.25
2018-03-01T17:43:38.725Z,24.83
2018-03-01T17:46:06.842Z,25.65
2018-03-01T17:48:36.486Z,25.20
2018-03-01T17:51:05.461Z,27.20
2018-03-01T17:53:34.346Z,26.50
2018-03-01T17:56:02.487Z,25.83
2018-03-01T17:58:30.617Z,25.60
2018-03-01T18:00:58.760Z,26.60
2018-03-01T18:03:27.665Z,24.40
2018-03-01T18:05:55.802Z,26.80
2018-03-01T18:08:23.929Z,25.23
2018-03-01T18:10:52.081Z,26.05
2018-03-01T18:13:20.960Z,24.33
2018-03-01T18:15:49.865Z,25.15
2018-03-01T18:18:17.998Z,28.12
2018-03-01T18:20:46.204Z,26.40
2018-03-01T18:23:14.350Z,27.17
2018-03-01T18:25:42.513Z,26.62
2018-03-01T18:28:10.620Z,27.35
2018-03-01T18:30:38.757Z,28.30
2018-03-01T18:33:06.886Z,26.65
2018-03-01T18:35:35.034Z,27.80
2018-03-01T18:38:03.163Z,26.50
2018-03-01T18:40:32.793Z,26.85
2018-03-01T18:43:00.945Z,24.10
2018-03-01T18:45:29.066Z,27.83
2018-03-01T18:47:57.222Z,27.40
2018-03-01T18:50:25.367Z,28.92
2018-03-01T18:52:53.494Z,29.12
2018-03-01T18:55:21.638Z,25.58
2018-03-01T18:57:50.553Z,28.42
2018-03-01T19:00:18.733Z,29.58
2018-03-01T19:02:46.861Z,26.70
2018-03-01T19:05:15.753Z,29.02
2018-03-01T19:07:44.656Z,26.70
2018-03-01T19:10:12.791Z,27.83
2018-03-01T19:12:40.928Z,26.40
2018-03-01T19:15:09.053Z,27.17
2018-03-01T19:17:37.962Z,29.50
2018-03-01T19:20:06.089Z,28.90
2018-03-01T19:22:34.299Z,28.55
2018-03-01T19:25:02.431Z,28.23
2018-03-01T19:27:30.574Z,29.02
2018-03-01T19:29:58.698Z,27.75
2018-03-01T19:32:27.605Z,29.58
2018-03-01T19:34:55.738Z,28.73
2018-03-01T19:37:23.882Z,30.58
2018-03-01T19:39:52.078Z,29.48
2018-03-01T19:42:20.221Z,30.62
2018-03-01T19:44:48.353Z,29.37
2018-03-01T19:47:16.497Z,30.25
2018-03-01T19:49:44.619Z,29.02
2018-03-01T19:52:12.787Z,27.75
2018-03-01T19:54:40.936Z,31.87
2018-03-01T19:57:09.085Z,32.15
2018-03-01T19:59:37.207Z,30.45
2018-03-01T20:02:05.341Z,31.15
2018-03-01T20:04:33.497Z,29.17
2018-03-01T20:07:01.638Z,29.70
2018-03-01T20:09:29.775Z,30.23
2018-03-01T20:11:57.918Z,29.77
2018-03-01T20:14:26.121Z,30.70
2018-03-01T20:16:54.264Z,29.30
2018-03-01T20:19:23.205Z,30.00
2018-03-01T20:21:51.707Z,28.98
2018-03-01T20:24:19.938Z,29.30
2018-03-01T20:26:48.088Z,29.73
2018-03-01T20:29:17.076Z,28.50
2018-03-01T20:31:45.257Z,31.62
2018-03-01T20:34:14.165Z,28.60
2018-03-01T20:36:42.309Z,29.37
2018-03-01T20:39:11.204Z,27.52
2018-03-01T20:41:45.960Z,29.90
2018-03-01T20:44:15.266Z,29.40
2018-03-01T20:46:43.385Z,28.80
2018-03-01T20:49:11.521Z,30.62
2018-03-01T20:51:39.647Z,28.35
2018-03-01T20:54:07.792Z,30.70
2018-03-01T20:56:35.932Z,29.90
2018-03-01T20:59:04.078Z,28.33
2018-03-01T21:01:32.210Z,27.67
2018-03-01T21:04:00.444Z,30.05
2018-03-01T21:06:28.594Z,29.45
2018-03-01T21:08:56.749Z,28.92
2018-03-01T21:11:25.065Z,28.02
2018-03-01T21:13:53.216Z,28.58
2018-03-01T21:16:21.332Z,29.27
2018-03-01T21:18:49.466Z,28.33
2018-03-01T21:21:17.696Z,30.00
2018-03-01T21:23:45.821Z,28.87
2018-03-01T21:26:13.971Z,29.98
2018-03-01T21:28:42.098Z,30.98
2018-03-01T21:31:10.225Z,29.77
2018-03-01T21:33:38.348Z,29.95
2018-03-01T21:36:06.505Z,28.25
2018-03-01T21:38:34.645Z,28.92
2018-03-01T21:41:02.830Z,31.90
2018-03-01T21:43:30.950Z,30.23
2018-03-01T21:45:59.849Z,28.62
2018-03-01T21:48:27.973Z,28.33
2018-03-01T21:50:56.173Z,29.95
2018-03-01T21:53:25.064Z,27.77
2018-03-01T21:55:53.963Z,29.02
2018-03-01T21:58:22.850Z,29.25
2018-03-01T22:00:51.753Z,28.65
2018-03-01T22:03:19.896Z,30.33
2018-03-01T22:05:48.033Z,29.20
2018-03-01T22:08:16.155Z,30.40
2018-03-01T22:10:45.060Z,28.42
2018-03-01T22:13:13.218Z,28.70
2018-03-01T22:15:41.392Z,28.45
2018-03-01T22:18:10.310Z,28.95
2018-03-01T22:20:38.449Z,24.80
2018-03-01T22:23:07.341Z,30.27
2018-03-01T22:25:36.238Z,29.48
2018-03-01T22:28:04.375Z,29.77
2018-03-01T22:30:32.548Z,30.02
2018-03-01T22:33:00.661Z,27.15
2018-03-01T22:35:28.806Z,29.25
2018-03-01T22:37:57.691Z,29.10
2018-03-01T22:40:25.822Z,27.75
2018-03-01T22:42:53.945Z,29.05
2018-03-01T22:45:22.850Z,28.80
2018-03-01T22:47:51.009Z,28.92
2018-03-01T22:50:19.915Z,30.08
2018-03-01T22:52:48.045Z,28.62
2018-03-01T22:55:16.177Z,30.08
2018-03-01T22:57:44.355Z,27.15
2018-03-01T23:00:12.501Z,29.52
2018-03-01T23:02:40.667Z,29.05
2018-03-01T23:05:08.776Z,28.55
2018-03-01T23:07:36.930Z,30.35
2018-03-01T23:10:05.077Z,30.70
2018-03-01T23:12:33.954Z,27.25
2018-03-01T23:15:02.862Z,30.23
2018-03-01T23:17:30.981Z,29.08
2018-03-01T23:19:59.135Z,28.80
2018-03-01T23:22:27.265Z,28.90
2018-03-01T23:24:56.161Z,29.20
2018-03-01T23:27:24.367Z,28.87
2018-03-01T23:29:52.447Z,27.80
2018-03-01T23:32:20.564Z,27.52
2018-03-01T23:34:48.816Z,29.20
2018-03-01T23:37:16.894Z,29.25
2018-03-01T23:39:45.021Z,29.05
2018-03-01T23:42:13.157Z,28.02
2018-03-01T23:44:42.069Z,29.83
2018-03-01T23:47:10.231Z,29.08
2018-03-01T23:49:38.349Z,30.08
2018-03-01T23:52:06.495Z,27.20
2018-03-01T23:54:34.613Z,28.90
2018-03-01T23:57:03.542Z,28.98
2018-03-01T23:59:31.669Z,28.70
